sensor_id;sensor_type;location;lat;lon;timestamp;P1;durP1;ratioP1;P2;durP2;ratioP2
29412;SDS011;16389;50.126;8.450;2022-08-25T00:00:47;0.80;;;0.80;;
29412;SDS011;16389;50.126;8.450;2022-08-25T00:03:15;2.20;;;1.13;;
29412;SDS011;16389;50.126;8.450;2022-08-25T00:05:41;1.25;;;1.15;;
29412;SDS011;16389;50.126;8.450;2022-08-25T00:08:07;1.42;;;0.80;;
29412;SDS011;16389;50.126;8.450;2022-08-25T00:10:36;1.27;;;0.77;;
29412;SDS011;16389;50.126;8.450;2022-08-25T00:13:03;1.20;;;0.80;;
29412;SDS011;16389;50.126;8.450;2022-08-25T00:15:29;1.40;;;1.20;;
29412;SDS011;16389;50.126;8.450;2022-08-25T00:17:56;2.13;;;1.02;;
29412;SDS011;16389;50.126;8.450;2022-08-25T00:20:23;1.10;;;0.90;;
29412;SDS011;16389;50.126;8.450;2022-08-25T00:22:49;2.80;;;1.23;;
29412;SDS011;16389;50.126;8.450;2022-08-25T00:25:15;1.02;;;0.88;;
29412;SDS011;16389;50.126;8.450;2022-08-25T00:27:42;2.00;;;1.00;;
29412;SDS011;16389;50.126;8.450;2022-08-25T00:30:08;2.67;;;0.90;;
29412;SDS011;16389;50.126;8.450;2022-08-25T00:32:36;3.50;;;1.15;;
29412;SDS011;16389;50.126;8.450;2022-08-25T00:35:02;1.23;;;0.93;;
29412;SDS011;16389;50.126;8.450;2022-08-25T00:37:28;1.70;;;1.00;;
29412;SDS011;16389;50.126;8.450;2022-08-25T00:39:54;3.35;;;0.70;;
29412;SDS011;16389;50.126;8.450;2022-08-25T00:42:21;1.95;;;1.40;;
29412;SDS011;16389;50.126;8.450;2022-08-25T00:44:48;2.35;;;1.10;;
29412;SDS011;16389;50.126;8.450;2022-08-25T00:47:13;5.97;;;1.10;;
29412;SDS011;16389;50.126;8.450;2022-08-25T00:49:44;1.15;;;1.00;;
29412;SDS011;16389;50.126;8.450;2022-08-25T00:52:17;2.72;;;0.90;;
29412;SDS011;16389;50.126;8.450;2022-08-25T00:54:55;2.00;;;1.00;;
29412;SDS011;16389;50.126;8.450;2022-08-25T00:58:14;1.65;;;0.90;;
29412;SDS011;16389;50.126;8.450;2022-08-25T01:00:18;1.17;;;1.05;;
29412;SDS011;16389;50.126;8.450;2022-08-25T01:02:50;1.23;;;0.95;;
29412;SDS011;16389;50.126;8.450;2022-08-25T01:05:16;2.65;;;1.58;;
29412;SDS011;16389;50.126;8.450;2022-08-25T01:07:43;1.58;;;1.10;;
29412;SDS011;16389;50.126;8.450;2022-08-25T01:10:10;1.80;;;1.13;;
29412;SDS011;16389;50.126;8.450;2022-08-25T01:12:37;1.33;;;0.93;;
29412;SDS011;16389;50.126;8.450;2022-08-25T01:15:05;1.00;;;0.93;;
29412;SDS011;16389;50.126;8.450;2022-08-25T01:17:52;9.55;;;1.38;;
29412;SDS011;16389;50.126;8.450;2022-08-25T01:20:20;1.60;;;1.27;;
29412;SDS011;16389;50.126;8.450;2022-08-25T01:22:48;1.13;;;1.02;;
29412;SDS011;16389;50.126;8.450;2022-08-25T01:25:26;1.88;;;1.20;;
29412;SDS011;16389;50.126;8.450;2022-08-25T01:27:55;1.63;;;1.13;;
29412;SDS011;16389;50.126;8.450;2022-08-25T01:30:21;2.55;;;1.10;;
29412;SDS011;16389;50.126;8.450;2022-08-25T01:32:48;1.45;;;1.05;;
29412;SDS011;16389;50.126;8.450;2022-08-25T01:35:13;1.55;;;1.08;;
29412;SDS011;16389;50.126;8.450;2022-08-25T01:37:39;2.35;;;1.10;;
29412;SDS011;16389;50.126;8.450;2022-08-25T01:40:05;2.80;;;1.42;;
29412;SDS011;16389;50.126;8.450;2022-08-25T01:45:31;1.38;;;0.98;;
29412;SDS011;16389;50.126;8.450;2022-08-25T01:47:58;1.65;;;1.55;;
29412;SDS011;16389;50.126;8.450;2022-08-25T01:50:24;2.17;;;1.08;;
29412;SDS011;16389;50.126;8.450;2022-08-25T01:52:53;1.85;;;1.20;;
29412;SDS011;16389;50.126;8.450;2022-08-25T01:55:23;1.95;;;1.17;;
29412;SDS011;16389;50.126;8.450;2022-08-25T01:57:50;2.55;;;1.20;;
29412;SDS011;16389;50.126;8.450;2022-08-25T02:00:16;9.73;;;1.55;;
29412;SDS011;16389;50.126;8.450;2022-08-25T02:02:44;1.00;;;0.90;;
29412;SDS011;16389;50.126;8.450;2022-08-25T02:05:10;5.43;;;1.30;;
29412;SDS011;16389;50.126;8.450;2022-08-25T02:07:38;1.45;;;1.30;;
29412;SDS011;16389;50.126;8.450;2022-08-25T02:10:04;2.15;;;1.20;;
29412;SDS011;16389;50.126;8.450;2022-08-25T02:12:31;2.17;;;1.40;;
29412;SDS011;16389;50.126;8.450;2022-08-25T02:14:58;2.30;;;1.67;;
29412;SDS011;16389;50.126;8.450;2022-08-25T02:17:25;1.60;;;1.15;;
29412;SDS011;16389;50.126;8.450;2022-08-25T02:19:51;1.38;;;1.20;;
29412;SDS011;16389;50.126;8.450;2022-08-25T02:22:17;2.75;;;1.30;;
29412;SDS011;16389;50.126;8.450;2022-08-25T02:24:43;2.28;;;1.40;;
29412;SDS011;16389;50.126;8.450;2022-08-25T02:27:08;1.85;;;1.33;;
29412;SDS011;16389;50.126;8.450;2022-08-25T02:29:34;2.20;;;1.33;;
29412;SDS011;16389;50.126;8.450;2022-08-25T02:32:00;1.80;;;1.67;;
29412;SDS011;16389;50.126;8.450;2022-08-25T02:34:27;2.45;;;1.52;;
29412;SDS011;16389;50.126;8.450;2022-08-25T02:36:52;1.92;;;1.40;;
29412;SDS011;16389;50.126;8.450;2022-08-25T02:39:18;2.35;;;1.52;;
29412;SDS011;16389;50.126;8.450;2022-08-25T02:41:44;3.67;;;1.30;;
29412;SDS011;16389;50.126;8.450;2022-08-25T02:44:09;2.00;;;1.30;;
29412;SDS011;16389;50.126;8.450;2022-08-25T02:46:35;2.72;;;1.83;;
29412;SDS011;16389;50.126;8.450;2022-08-25T02:49:02;2.30;;;1.60;;
29412;SDS011;16389;50.126;8.450;2022-08-25T02:51:28;1.95;;;1.23;;
29412;SDS011;16389;50.126;8.450;2022-08-25T02:53:55;1.63;;;1.50;;
29412;SDS011;16389;50.126;8.450;2022-08-25T02:56:23;1.90;;;1.35;;
29412;SDS011;16389;50.126;8.450;2022-08-25T02:58:49;3.15;;;1.45;;
29412;SDS011;16389;50.126;8.450;2022-08-25T03:01:16;2.38;;;1.70;;
29412;SDS011;16389;50.126;8.450;2022-08-25T03:03:43;1.80;;;1.40;;
29412;SDS011;16389;50.126;8.450;2022-08-25T03:06:11;5.05;;;2.15;;
29412;SDS011;16389;50.126;8.450;2022-08-25T03:08:38;2.38;;;1.65;;
29412;SDS011;16389;50.126;8.450;2022-08-25T03:11:04;3.75;;;1.48;;
29412;SDS011;16389;50.126;8.450;2022-08-25T03:13:30;2.30;;;1.55;;
29412;SDS011;16389;50.126;8.450;2022-08-25T03:15:57;2.10;;;1.90;;
29412;SDS011;16389;50.126;8.450;2022-08-25T03:18:23;2.90;;;1.27;;
29412;SDS011;16389;50.126;8.450;2022-08-25T03:20:49;1.65;;;1.20;;
29412;SDS011;16389;50.126;8.450;2022-08-25T03:23:15;3.17;;;2.05;;
29412;SDS011;16389;50.126;8.450;2022-08-25T03:25:41;3.33;;;2.28;;
29412;SDS011;16389;50.126;8.450;2022-08-25T03:28:25;1.95;;;1.70;;
29412;SDS011;16389;50.126;8.450;2022-08-25T03:30:51;2.40;;;1.52;;
29412;SDS011;16389;50.126;8.450;2022-08-25T03:33:17;7.97;;;1.60;;
29412;SDS011;16389;50.126;8.450;2022-08-25T03:35:43;4.85;;;1.45;;
29412;SDS011;16389;50.126;8.450;2022-08-25T03:38:09;2.33;;;1.63;;
29412;SDS011;16389;50.126;8.450;2022-08-25T03:40:35;2.15;;;1.40;;
29412;SDS011;16389;50.126;8.450;2022-08-25T03:43:02;3.03;;;1.63;;
29412;SDS011;16389;50.126;8.450;2022-08-25T03:45:28;2.05;;;1.38;;
29412;SDS011;16389;50.126;8.450;2022-08-25T03:47:53;2.80;;;1.83;;
29412;SDS011;16389;50.126;8.450;2022-08-25T03:50:20;1.92;;;1.58;;
29412;SDS011;16389;50.126;8.450;2022-08-25T03:52:50;2.35;;;1.50;;
29412;SDS011;16389;50.126;8.450;2022-08-25T03:55:17;5.25;;;2.03;;
29412;SDS011;16389;50.126;8.450;2022-08-25T03:57:43;2.58;;;2.10;;
29412;SDS011;16389;50.126;8.450;2022-08-25T04:00:09;7.88;;;1.75;;
29412;SDS011;16389;50.126;8.450;2022-08-25T04:02:36;2.53;;;1.98;;
29412;SDS011;16389;50.126;8.450;2022-08-25T04:05:02;5.07;;;1.63;;
29412;SDS011;16389;50.126;8.450;2022-08-25T04:07:28;2.72;;;1.90;;
29412;SDS011;16389;50.126;8.450;2022-08-25T04:09:54;2.28;;;1.73;;
29412;SDS011;16389;50.126;8.450;2022-08-25T04:12:20;2.33;;;1.80;;
29412;SDS011;16389;50.126;8.450;2022-08-25T04:14:46;3.25;;;1.77;;
29412;SDS011;16389;50.126;8.450;2022-08-25T04:17:12;3.33;;;2.03;;
29412;SDS011;16389;50.126;8.450;2022-08-25T04:19:38;2.80;;;2.25;;
29412;SDS011;16389;50.126;8.450;2022-08-25T04:22:03;5.72;;;1.88;;
29412;SDS011;16389;50.126;8.450;2022-08-25T04:24:29;1.88;;;1.58;;
29412;SDS011;16389;50.126;8.450;2022-08-25T04:26:54;3.25;;;2.30;;
29412;SDS011;16389;50.126;8.450;2022-08-25T04:29:21;3.08;;;1.65;;
29412;SDS011;16389;50.126;8.450;2022-08-25T04:31:48;5.78;;;1.95;;
29412;SDS011;16389;50.126;8.450;2022-08-25T04:34:15;2.17;;;1.40;;
29412;SDS011;16389;50.126;8.450;2022-08-25T04:36:42;4.82;;;2.28;;
29412;SDS011;16389;50.126;8.450;2022-08-25T04:39:08;3.25;;;2.30;;
29412;SDS011;16389;50.126;8.450;2022-08-25T04:41:34;3.40;;;2.17;;
29412;SDS011;16389;50.126;8.450;2022-08-25T04:44:00;4.70;;;2.00;;
29412;SDS011;16389;50.126;8.450;2022-08-25T04:46:28;2.60;;;1.80;;
29412;SDS011;16389;50.126;8.450;2022-08-25T04:48:55;2.85;;;2.50;;
29412;SDS011;16389;50.126;8.450;2022-08-25T04:51:24;1.92;;;1.55;;
29412;SDS011;16389;50.126;8.450;2022-08-25T04:53:52;2.53;;;1.95;;
29412;SDS011;16389;50.126;8.450;2022-08-25T04:56:19;2.85;;;2.22;;
29412;SDS011;16389;50.126;8.450;2022-08-25T04:58:48;3.05;;;2.05;;
29412;SDS011;16389;50.126;8.450;2022-08-25T05:01:16;3.75;;;2.50;;
29412;SDS011;16389;50.126;8.450;2022-08-25T05:03:45;2.47;;;2.10;;
29412;SDS011;16389;50.126;8.450;2022-08-25T05:06:12;2.25;;;2.00;;
29412;SDS011;16389;50.126;8.450;2022-08-25T05:08:39;3.10;;;2.05;;
29412;SDS011;16389;50.126;8.450;2022-08-25T05:11:08;2.65;;;2.00;;
29412;SDS011;16389;50.126;8.450;2022-08-25T05:13:37;4.85;;;1.92;;
29412;SDS011;16389;50.126;8.450;2022-08-25T05:16:03;1.90;;;1.70;;
29412;SDS011;16389;50.126;8.450;2022-08-25T05:18:29;3.13;;;2.38;;
29412;SDS011;16389;50.126;8.450;2022-08-25T05:21:00;19.13;;;2.63;;
29412;SDS011;16389;50.126;8.450;2022-08-25T05:23:30;2.42;;;1.90;;
29412;SDS011;16389;50.126;8.450;2022-08-25T05:26:00;2.45;;;2.05;;
29412;SDS011;16389;50.126;8.450;2022-08-25T05:28:29;14.77;;;2.30;;
29412;SDS011;16389;50.126;8.450;2022-08-25T05:30:58;6.78;;;2.60;;
29412;SDS011;16389;50.126;8.450;2022-08-25T05:33:25;3.90;;;2.70;;
29412;SDS011;16389;50.126;8.450;2022-08-25T05:35:51;4.35;;;2.25;;
29412;SDS011;16389;50.126;8.450;2022-08-25T05:38:17;7.65;;;2.90;;
29412;SDS011;16389;50.126;8.450;2022-08-25T05:40:43;3.20;;;2.10;;
29412;SDS011;16389;50.126;8.450;2022-08-25T05:43:08;2.83;;;2.40;;
29412;SDS011;16389;50.126;8.450;2022-08-25T05:45:34;6.50;;;2.50;;
29412;SDS011;16389;50.126;8.450;2022-08-25T05:48:00;3.83;;;2.80;;
29412;SDS011;16389;50.126;8.450;2022-08-25T05:50:26;3.20;;;2.65;;
29412;SDS011;16389;50.126;8.450;2022-08-25T05:52:52;3.92;;;2.83;;
29412;SDS011;16389;50.126;8.450;2022-08-25T05:55:18;6.45;;;2.97;;
29412;SDS011;16389;50.126;8.450;2022-08-25T05:57:44;5.53;;;3.05;;
29412;SDS011;16389;50.126;8.450;2022-08-25T06:00:10;3.83;;;2.72;;
29412;SDS011;16389;50.126;8.450;2022-08-25T06:02:36;3.05;;;2.60;;
29412;SDS011;16389;50.126;8.450;2022-08-25T06:05:26;3.15;;;2.47;;
29412;SDS011;16389;50.126;8.450;2022-08-25T06:07:51;3.55;;;2.85;;
29412;SDS011;16389;50.126;8.450;2022-08-25T06:10:17;4.47;;;3.42;;
29412;SDS011;16389;50.126;8.450;2022-08-25T06:12:44;6.47;;;2.50;;
29412;SDS011;16389;50.126;8.450;2022-08-25T06:15:14;2.60;;;2.35;;
29412;SDS011;16389;50.126;8.450;2022-08-25T06:17:42;10.30;;;3.25;;
29412;SDS011;16389;50.126;8.450;2022-08-25T06:20:09;5.15;;;3.05;;
29412;SDS011;16389;50.126;8.450;2022-08-25T06:22:40;3.42;;;2.42;;
29412;SDS011;16389;50.126;8.450;2022-08-25T06:25:06;4.05;;;3.03;;
29412;SDS011;16389;50.126;8.450;2022-08-25T06:27:34;3.03;;;2.20;;
29412;SDS011;16389;50.126;8.450;2022-08-25T06:30:00;4.20;;;2.83;;
29412;SDS011;16389;50.126;8.450;2022-08-25T06:32:31;5.53;;;3.45;;
29412;SDS011;16389;50.126;8.450;2022-08-25T06:35:02;6.78;;;2.50;;
29412;SDS011;16389;50.126;8.450;2022-08-25T06:37:28;3.50;;;2.83;;
29412;SDS011;16389;50.126;8.450;2022-08-25T06:39:54;4.18;;;2.75;;
29412;SDS011;16389;50.126;8.450;2022-08-25T06:42:20;4.40;;;2.63;;
29412;SDS011;16389;50.126;8.450;2022-08-25T06:44:45;3.80;;;2.97;;
29412;SDS011;16389;50.126;8.450;2022-08-25T06:47:11;6.32;;;3.15;;
29412;SDS011;16389;50.126;8.450;2022-08-25T06:49:38;4.75;;;3.15;;
29412;SDS011;16389;50.126;8.450;2022-08-25T06:52:04;4.80;;;2.80;;
29412;SDS011;16389;50.126;8.450;2022-08-25T06:54:29;5.03;;;2.50;;
29412;SDS011;16389;50.126;8.450;2022-08-25T06:56:55;3.28;;;2.70;;
29412;SDS011;16389;50.126;8.450;2022-08-25T06:59:20;3.55;;;2.60;;
29412;SDS011;16389;50.126;8.450;2022-08-25T07:01:46;7.50;;;3.65;;
29412;SDS011;16389;50.126;8.450;2022-08-25T07:04:12;6.72;;;3.17;;
29412;SDS011;16389;50.126;8.450;2022-08-25T07:06:37;4.25;;;3.03;;
29412;SDS011;16389;50.126;8.450;2022-08-25T07:09:04;12.57;;;3.55;;
29412;SDS011;16389;50.126;8.450;2022-08-25T07:11:31;7.65;;;3.28;;
29412;SDS011;16389;50.126;8.450;2022-08-25T07:14:00;8.40;;;3.20;;
29412;SDS011;16389;50.126;8.450;2022-08-25T07:16:26;4.95;;;2.75;;
29412;SDS011;16389;50.126;8.450;2022-08-25T07:18:52;3.80;;;2.97;;
29412;SDS011;16389;50.126;8.450;2022-08-25T07:21:20;4.13;;;3.55;;
29412;SDS011;16389;50.126;8.450;2022-08-25T07:26:18;2.90;;;2.38;;
29412;SDS011;16389;50.126;8.450;2022-08-25T07:28:46;5.68;;;3.33;;
29412;SDS011;16389;50.126;8.450;2022-08-25T07:31:12;3.95;;;2.90;;
29412;SDS011;16389;50.126;8.450;2022-08-25T07:33:38;3.63;;;2.67;;
29412;SDS011;16389;50.126;8.450;2022-08-25T07:36:23;6.85;;;2.78;;
29412;SDS011;16389;50.126;8.450;2022-08-25T07:38:49;3.00;;;2.47;;
29412;SDS011;16389;50.126;8.450;2022-08-25T07:41:15;3.42;;;2.75;;
29412;SDS011;16389;50.126;8.450;2022-08-25T07:43:41;3.28;;;2.78;;
29412;SDS011;16389;50.126;8.450;2022-08-25T07:46:07;5.03;;;3.38;;
29412;SDS011;16389;50.126;8.450;2022-08-25T07:48:32;2.88;;;2.58;;
29412;SDS011;16389;50.126;8.450;2022-08-25T07:50:58;3.80;;;2.65;;
29412;SDS011;16389;50.126;8.450;2022-08-25T07:53:23;3.53;;;2.33;;
29412;SDS011;16389;50.126;8.450;2022-08-25T07:55:49;4.70;;;2.58;;
29412;SDS011;16389;50.126;8.450;2022-08-25T07:58:15;14.07;;;4.90;;
29412;SDS011;16389;50.126;8.450;2022-08-25T08:00:42;7.07;;;4.32;;
29412;SDS011;16389;50.126;8.450;2022-08-25T08:03:12;3.25;;;2.70;;
29412;SDS011;16389;50.126;8.450;2022-08-25T08:05:39;4.70;;;2.70;;
29412;SDS011;16389;50.126;8.450;2022-08-25T08:08:05;3.22;;;2.40;;
29412;SDS011;16389;50.126;8.450;2022-08-25T08:10:31;3.30;;;2.58;;
29412;SDS011;16389;50.126;8.450;2022-08-25T08:12:56;4.57;;;2.53;;
29412;SDS011;16389;50.126;8.450;2022-08-25T08:15:22;3.45;;;2.90;;
29412;SDS011;16389;50.126;8.450;2022-08-25T08:17:48;3.50;;;2.20;;
29412;SDS011;16389;50.126;8.450;2022-08-25T08:20:14;3.70;;;2.33;;
29412;SDS011;16389;50.126;8.450;2022-08-25T08:22:41;3.65;;;2.80;;
29412;SDS011;16389;50.126;8.450;2022-08-25T08:25:09;3.63;;;2.75;;
29412;SDS011;16389;50.126;8.450;2022-08-25T08:27:36;5.78;;;2.97;;
29412;SDS011;16389;50.126;8.450;2022-08-25T08:30:04;3.05;;;2.75;;
29412;SDS011;16389;50.126;8.450;2022-08-25T08:32:30;3.35;;;3.00;;
29412;SDS011;16389;50.126;8.450;2022-08-25T08:34:56;2.53;;;2.22;;
29412;SDS011;16389;50.126;8.450;2022-08-25T08:37:21;2.65;;;2.25;;
29412;SDS011;16389;50.126;8.450;2022-08-25T08:39:47;5.00;;;2.63;;
29412;SDS011;16389;50.126;8.450;2022-08-25T08:45:05;5.97;;;3.05;;
29412;SDS011;16389;50.126;8.450;2022-08-25T08:53:54;4.85;;;3.20;;
29412;SDS011;16389;50.126;8.450;2022-08-25T08:56:22;4.68;;;2.38;;
29412;SDS011;16389;50.126;8.450;2022-08-25T08:59:03;3.17;;;2.47;;
29412;SDS011;16389;50.126;8.450;2022-08-25T09:01:34;7.63;;;2.75;;
29412;SDS011;16389;50.126;8.450;2022-08-25T09:06:56;2.15;;;1.88;;
29412;SDS011;16389;50.126;8.450;2022-08-25T09:17:55;3.33;;;2.08;;
29412;SDS011;16389;50.126;8.450;2022-08-25T09:20:39;2.22;;;2.00;;
29412;SDS011;16389;50.126;8.450;2022-08-25T09:23:24;5.78;;;2.58;;
29412;SDS011;16389;50.126;8.450;2022-08-25T09:29:00;3.58;;;1.90;;
29412;SDS011;16389;50.126;8.450;2022-08-25T09:31:39;2.88;;;2.22;;
29412;SDS011;16389;50.126;8.450;2022-08-25T09:34:11;2.13;;;1.92;;
29412;SDS011;16389;50.126;8.450;2022-08-25T09:36:40;2.20;;;2.00;;
29412;SDS011;16389;50.126;8.450;2022-08-25T09:39:06;2.17;;;1.98;;
29412;SDS011;16389;50.126;8.450;2022-08-25T09:41:40;9.02;;;2.15;;
29412;SDS011;16389;50.126;8.450;2022-08-25T09:46:56;3.65;;;2.13;;
29412;SDS011;16389;50.126;8.450;2022-08-25T09:49:33;3.67;;;2.08;;
29412;SDS011;16389;50.126;8.450;2022-08-25T09:54:53;2.67;;;2.42;;
29412;SDS011;16389;50.126;8.450;2022-08-25T09:57:54;2.30;;;2.10;;
29412;SDS011;16389;50.126;8.450;2022-08-25T10:03:07;3.53;;;2.65;;
29412;SDS011;16389;50.126;8.450;2022-08-25T10:08:38;3.67;;;2.35;;
29412;SDS011;16389;50.126;8.450;2022-08-25T10:11:08;5.05;;;3.15;;
29412;SDS011;16389;50.126;8.450;2022-08-25T10:13:39;2.65;;;2.45;;
29412;SDS011;16389;50.126;8.450;2022-08-25T10:16:09;3.15;;;2.40;;
29412;SDS011;16389;50.126;8.450;2022-08-25T10:18:44;10.75;;;2.38;;
29412;SDS011;16389;50.126;8.450;2022-08-25T10:21:10;2.47;;;1.95;;
29412;SDS011;16389;50.126;8.450;2022-08-25T10:23:40;2.40;;;2.20;;
29412;SDS011;16389;50.126;8.450;2022-08-25T10:26:14;3.03;;;2.05;;
29412;SDS011;16389;50.126;8.450;2022-08-25T10:29:08;2.60;;;1.90;;
29412;SDS011;16389;50.126;8.450;2022-08-25T10:31:58;2.85;;;2.00;;
29412;SDS011;16389;50.126;8.450;2022-08-25T10:34:48;2.33;;;2.13;;
29412;SDS011;16389;50.126;8.450;2022-08-25T10:40:09;2.45;;;2.25;;
29412;SDS011;16389;50.126;8.450;2022-08-25T10:45:24;2.58;;;2.03;;
29412;SDS011;16389;50.126;8.450;2022-08-25T10:48:16;3.55;;;2.42;;
29412;SDS011;16389;50.126;8.450;2022-08-25T11:05:11;2.60;;;1.95;;
29412;SDS011;16389;50.126;8.450;2022-08-25T11:07:40;3.30;;;2.10;;
29412;SDS011;16389;50.126;8.450;2022-08-25T11:10:51;2.75;;;2.40;;
29412;SDS011;16389;50.126;8.450;2022-08-25T11:13:02;2.28;;;1.92;;
29412;SDS011;16389;50.126;8.450;2022-08-25T11:18:49;2.53;;;2.05;;
29412;SDS011;16389;50.126;8.450;2022-08-25T11:21:32;2.03;;;1.92;;
29412;SDS011;16389;50.126;8.450;2022-08-25T11:24:19;2.15;;;1.95;;
29412;SDS011;16389;50.126;8.450;2022-08-25T11:27:04;2.65;;;2.42;;
29412;SDS011;16389;50.126;8.450;2022-08-25T11:29:35;2.83;;;2.55;;
29412;SDS011;16389;50.126;8.450;2022-08-25T11:32:02;4.50;;;2.10;;
29412;SDS011;16389;50.126;8.450;2022-08-25T11:34:32;1.85;;;1.70;;
29412;SDS011;16389;50.126;8.450;2022-08-25T11:37:13;2.70;;;1.63;;
29412;SDS011;16389;50.126;8.450;2022-08-25T11:39:58;2.22;;;2.03;;
29412;SDS011;16389;50.126;8.450;2022-08-25T11:53:39;2.42;;;2.15;;
29412;SDS011;16389;50.126;8.450;2022-08-25T11:56:10;2.53;;;2.30;;
29412;SDS011;16389;50.126;8.450;2022-08-25T11:58:55;2.45;;;2.25;;
29412;SDS011;16389;50.126;8.450;2022-08-25T12:12:37;2.60;;;2.17;;
29412;SDS011;16389;50.126;8.450;2022-08-25T12:21:09;2.47;;;2.28;;
29412;SDS011;16389;50.126;8.450;2022-08-25T12:23:38;3.03;;;2.08;;
29412;SDS011;16389;50.126;8.450;2022-08-25T12:29:21;1.98;;;1.88;;
29412;SDS011;16389;50.126;8.450;2022-08-25T12:31:51;2.65;;;2.20;;
29412;SDS011;16389;50.126;8.450;2022-08-25T12:37:11;2.88;;;1.90;;
29412;SDS011;16389;50.126;8.450;2022-08-25T12:39:43;3.53;;;2.05;;
29412;SDS011;16389;50.126;8.450;2022-08-25T12:42:31;2.17;;;1.95;;
29412;SDS011;16389;50.126;8.450;2022-08-25T12:45:30;2.72;;;2.00;;
29412;SDS011;16389;50.126;8.450;2022-08-25T12:48:39;2.17;;;1.80;;
29412;SDS011;16389;50.126;8.450;2022-08-25T12:51:38;7.22;;;1.65;;
29412;SDS011;16389;50.126;8.450;2022-08-25T12:53:56;1.65;;;1.52;;
29412;SDS011;16389;50.126;8.450;2022-08-25T12:56:58;2.80;;;1.60;;
29412;SDS011;16389;50.126;8.450;2022-08-25T12:59:34;2.13;;;1.73;;
29412;SDS011;16389;50.126;8.450;2022-08-25T13:02:21;2.33;;;1.98;;
29412;SDS011;16389;50.126;8.450;2022-08-25T13:05:13;2.22;;;1.58;;
29412;SDS011;16389;50.126;8.450;2022-08-25T13:10:54;2.53;;;2.33;;
29412;SDS011;16389;50.126;8.450;2022-08-25T13:16:14;1.63;;;1.52;;
29412;SDS011;16389;50.126;8.450;2022-08-25T13:18:45;1.52;;;1.40;;
29412;SDS011;16389;50.126;8.450;2022-08-25T13:24:18;2.15;;;1.70;;
29412;SDS011;16389;50.126;8.450;2022-08-25T13:26:58;1.48;;;1.38;;
29412;SDS011;16389;50.126;8.450;2022-08-25T13:29:27;1.92;;;1.55;;
29412;SDS011;16389;50.126;8.450;2022-08-25T13:31:59;2.90;;;2.10;;
29412;SDS011;16389;50.126;8.450;2022-08-25T13:34:28;1.77;;;1.50;;
29412;SDS011;16389;50.126;8.450;2022-08-25T13:39:47;2.65;;;1.70;;
29412;SDS011;16389;50.126;8.450;2022-08-25T13:42:13;1.70;;;1.60;;
29412;SDS011;16389;50.126;8.450;2022-08-25T13:44:41;1.53;;;1.37;;
29412;SDS011;16389;50.126;8.450;2022-08-25T13:47:09;1.90;;;1.45;;
29412;SDS011;16389;50.126;8.450;2022-08-25T13:50:13;2.28;;;1.80;;
29412;SDS011;16389;50.126;8.450;2022-08-25T13:52:40;1.95;;;1.42;;
29412;SDS011;16389;50.126;8.450;2022-08-25T13:55:10;2.30;;;1.58;;
29412;SDS011;16389;50.126;8.450;2022-08-25T13:57:40;10.65;;;1.80;;
29412;SDS011;16389;50.126;8.450;2022-08-25T14:00:08;2.92;;;1.52;;
29412;SDS011;16389;50.126;8.450;2022-08-25T14:05:07;2.00;;;1.27;;
29412;SDS011;16389;50.126;8.450;2022-08-25T14:07:34;1.70;;;1.48;;
29412;SDS011;16389;50.126;8.450;2022-08-25T14:10:10;2.10;;;1.90;;
29412;SDS011;16389;50.126;8.450;2022-08-25T14:15:42;2.08;;;1.88;;
29412;SDS011;16389;50.126;8.450;2022-08-25T14:18:24;2.38;;;1.80;;
29412;SDS011;16389;50.126;8.450;2022-08-25T14:20:55;1.73;;;1.60;;
29412;SDS011;16389;50.126;8.450;2022-08-25T14:23:24;2.42;;;1.90;;
29412;SDS011;16389;50.126;8.450;2022-08-25T14:25:53;3.65;;;1.80;;
29412;SDS011;16389;50.126;8.450;2022-08-25T14:28:24;2.30;;;1.67;;
29412;SDS011;16389;50.126;8.450;2022-08-25T14:30:54;1.92;;;1.80;;
29412;SDS011;16389;50.126;8.450;2022-08-25T14:33:23;2.63;;;1.65;;
29412;SDS011;16389;50.126;8.450;2022-08-25T14:35:54;1.85;;;1.70;;
29412;SDS011;16389;50.126;8.450;2022-08-25T14:38:23;1.50;;;1.40;;
29412;SDS011;16389;50.126;8.450;2022-08-25T14:40:49;3.45;;;2.08;;
29412;SDS011;16389;50.126;8.450;2022-08-25T14:43:16;4.03;;;1.88;;
29412;SDS011;16389;50.126;8.450;2022-08-25T14:45:42;2.08;;;1.50;;
29412;SDS011;16389;50.126;8.450;2022-08-25T14:48:13;1.80;;;1.70;;
29412;SDS011;16389;50.126;8.450;2022-08-25T14:51:03;3.50;;;1.58;;
29412;SDS011;16389;50.126;8.450;2022-08-25T14:53:29;3.27;;;1.60;;
29412;SDS011;16389;50.126;8.450;2022-08-25T14:55:55;1.50;;;1.40;;
29412;SDS011;16389;50.126;8.450;2022-08-25T14:58:21;3.33;;;1.63;;
29412;SDS011;16389;50.126;8.450;2022-08-25T15:00:47;2.08;;;1.80;;
29412;SDS011;16389;50.126;8.450;2022-08-25T15:03:15;1.50;;;1.40;;
29412;SDS011;16389;50.126;8.450;2022-08-25T15:05:44;5.22;;;1.52;;
29412;SDS011;16389;50.126;8.450;2022-08-25T15:08:09;1.85;;;1.73;;
29412;SDS011;16389;50.126;8.450;2022-08-25T15:10:54;2.70;;;1.58;;
29412;SDS011;16389;50.126;8.450;2022-08-25T15:13:19;1.90;;;1.70;;
29412;SDS011;16389;50.126;8.450;2022-08-25T15:15:45;1.83;;;1.42;;
29412;SDS011;16389;50.126;8.450;2022-08-25T15:18:12;2.17;;;1.52;;
29412;SDS011;16389;50.126;8.450;2022-08-25T15:20:38;1.83;;;1.58;;
29412;SDS011;16389;50.126;8.450;2022-08-25T15:23:04;2.30;;;1.83;;
29412;SDS011;16389;50.126;8.450;2022-08-25T15:25:29;1.50;;;1.40;;
29412;SDS011;16389;50.126;8.450;2022-08-25T15:27:55;2.70;;;1.60;;
29412;SDS011;16389;50.126;8.450;2022-08-25T15:30:21;1.63;;;1.52;;
29412;SDS011;16389;50.126;8.450;2022-08-25T15:32:47;1.88;;;1.40;;
29412;SDS011;16389;50.126;8.450;2022-08-25T15:35:12;2.10;;;1.73;;
29412;SDS011;16389;50.126;8.450;2022-08-25T15:37:38;1.75;;;1.63;;
29412;SDS011;16389;50.126;8.450;2022-08-25T15:40:04;3.17;;;1.65;;
29412;SDS011;16389;50.126;8.450;2022-08-25T15:42:32;10.82;;;1.85;;
29412;SDS011;16389;50.126;8.450;2022-08-25T15:44:58;2.08;;;1.35;;
29412;SDS011;16389;50.126;8.450;2022-08-25T15:47:23;5.38;;;1.90;;
29412;SDS011;16389;50.126;8.450;2022-08-25T15:49:49;2.15;;;1.58;;
29412;SDS011;16389;50.126;8.450;2022-08-25T15:52:26;2.42;;;1.58;;
29412;SDS011;16389;50.126;8.450;2022-08-25T15:54:52;1.85;;;1.75;;
29412;SDS011;16389;50.126;8.450;2022-08-25T15:57:17;1.50;;;1.40;;
29412;SDS011;16389;50.126;8.450;2022-08-25T15:59:43;1.73;;;1.50;;
29412;SDS011;16389;50.126;8.450;2022-08-25T16:02:08;1.75;;;1.58;;
29412;SDS011;16389;50.126;8.450;2022-08-25T16:04:34;2.20;;;1.77;;
29412;SDS011;16389;50.126;8.450;2022-08-25T16:07:00;2.22;;;1.98;;
29412;SDS011;16389;50.126;8.450;2022-08-25T16:09:25;2.63;;;1.65;;
29412;SDS011;16389;50.126;8.450;2022-08-25T16:11:51;4.25;;;1.75;;
29412;SDS011;16389;50.126;8.450;2022-08-25T16:14:17;3.53;;;2.10;;
29412;SDS011;16389;50.126;8.450;2022-08-25T16:16:42;1.65;;;1.55;;
29412;SDS011;16389;50.126;8.450;2022-08-25T16:19:08;1.77;;;1.65;;
29412;SDS011;16389;50.126;8.450;2022-08-25T16:21:34;2.00;;;1.73;;
29412;SDS011;16389;50.126;8.450;2022-08-25T16:24:02;1.70;;;1.58;;
29412;SDS011;16389;50.126;8.450;2022-08-25T16:26:30;5.60;;;1.80;;
29412;SDS011;16389;50.126;8.450;2022-08-25T16:28:56;2.25;;;1.80;;
29412;SDS011;16389;50.126;8.450;2022-08-25T16:31:22;7.03;;;1.80;;
29412;SDS011;16389;50.126;8.450;2022-08-25T16:33:48;2.45;;;2.05;;
29412;SDS011;16389;50.126;8.450;2022-08-25T16:36:15;3.45;;;1.85;;
29412;SDS011;16389;50.126;8.450;2022-08-25T16:38:43;2.58;;;1.70;;
29412;SDS011;16389;50.126;8.450;2022-08-25T16:41:15;1.77;;;1.40;;
29412;SDS011;16389;50.126;8.450;2022-08-25T16:43:43;2.10;;;1.70;;
29412;SDS011;16389;50.126;8.450;2022-08-25T16:46:11;2.35;;;1.80;;
29412;SDS011;16389;50.126;8.450;2022-08-25T16:48:38;1.70;;;1.60;;
29412;SDS011;16389;50.126;8.450;2022-08-25T16:51:05;1.55;;;1.45;;
29412;SDS011;16389;50.126;8.450;2022-08-25T16:53:32;2.65;;;1.83;;
29412;SDS011;16389;50.126;8.450;2022-08-25T16:56:15;2.67;;;1.83;;